Time;durP1;ratioP1;P1;durP2;ratioP2;P2;SDS_P1;SDS_P2;PMS_P1;PMS_P2;Temp;Humidity;BMP_temperature;BMP_pressure;BME280_temperature;BME280_humidity;BME280_pressure;Samples;Min_cycle;Max_cycle;Signal;HPM_P1;HPM_P2
2021/04/15 00:00:59;;;;;;;6.72;3.42;;;;;;;-1.99;82.44;99778.50;5073529;28;20035;-72
2021/04/15 00:03:28;;;;;;;8.05;3.85;;;;;;;-1.96;82.33;99796.84;5074701;28;20028;-72
2021/04/15 00:05:59;;;;;;;7.60;3.80;;;;;;;-2.05;81.67;99778.88;5076016;28;20032;-73
2021/04/15 00:08:25;;;;;;;8.75;4.00;;;;;;;-2.16;82.54;99774.25;5088454;28;20059;-72
2021/04/15 00:10:53;;;;;;;8.43;4.43;;;;;;;-2.05;82.21;99782.38;5098277;28;20012;-72
2021/04/15 00:13:20;;;;;;;8.38;5.05;;;;;;;-2.07;82.45;99778.09;5100061;28;20028;-73
2021/04/15 00:15:46;;;;;;;7.43;5.13;;;;;;;-2.15;82.66;99781.25;5097503;28;20042;-72
2021/04/15 00:18:11;;;;;;;7.30;4.97;;;;;;;-2.06;82.64;99770.06;5097191;28;20024;-73
2021/04/15 00:20:37;;;;;;;10.18;5.28;;;;;;;-2.03;81.70;99771.66;5097795;28;20080;-73
2021/04/15 00:23:02;;;;;;;7.43;4.70;;;;;;;-2.05;82.76;99776.22;5104036;28;20019;-74
2021/04/15 00:25:27;;;;;;;7.53;5.10;;;;;;;-2.27;81.74;99747.59;5089491;28;20025;-73
2021/04/15 00:27:53;;;;;;;9.00;4.65;;;;;;;-2.28;82.01;99769.72;5075672;28;20062;-72
2021/04/15 00:30:21;;;;;;;8.30;4.63;;;;;;;-2.15;83.67;99773.28;5073546;28;20492;-73
2021/04/15 00:32:46;;;;;;;11.55;5.10;;;;;;;-2.45;83.30;99753.13;5071598;28;20111;-73
2021/04/15 00:35:12;;;;;;;11.02;4.60;;;;;;;-2.52;82.90;99751.78;5062606;28;20052;-73
2021/04/15 00:37:38;;;;;;;7.78;4.65;;;;;;;-2.35;83.48;99777.25;5074886;28;20064;-73
2021/04/15 00:40:04;;;;;;;7.78;3.90;;;;;;;-2.37;83.41;99767.69;5076636;28;20127;-76
2021/04/15 00:42:30;;;;;;;6.20;3.40;;;;;;;-2.26;83.50;99767.84;5077645;28;20025;-75
2021/04/15 00:45:04;;;;;;;7.93;4.70;;;;;;;-2.38;82.71;99747.41;5077623;28;20023;-76
2021/04/15 00:47:29;;;;;;;7.43;4.30;;;;;;;-2.39;82.37;99751.88;5081418;28;20043;-76
2021/04/15 00:49:58;;;;;;;7.25;3.50;;;;;;;-2.39;82.77;99758.97;5094464;28;20048;-77
2021/04/15 00:52:26;;;;;;;9.25;4.75;;;;;;;-2.57;82.65;99759.19;5103747;28;20024;-79
2021/04/15 00:54:55;;;;;;;9.52;4.20;;;;;;;-2.57;82.78;99764.47;5075546;28;20033;-77
2021/04/15 00:57:26;;;;;;;;;;;;;;;-2.58;83.66;99768.09;5094793;28;20031;-72
2021/04/15 00:59:51;;;;;;;7.72;3.92;;;;;;;-2.56;83.46;99745.00;5096177;28;19918;-73
2021/04/15 01:02:19;;;;;;;12.27;4.07;;;;;;;-2.43;83.13;99761.81;5087523;28;20044;-73
2021/04/15 01:04:46;;;;;;;7.00;3.30;;;;;;;-2.43;83.33;99761.81;5078521;28;20076;-72
2021/04/15 01:07:12;;;;;;;8.13;4.10;;;;;;;-2.66;83.09;99738.59;5089194;28;20478;-75
2021/04/15 01:09:37;;;;;;;8.73;4.10;;;;;;;-2.78;82.93;99742.00;5073849;28;20066;-75
2021/04/15 01:12:46;;;;;;;7.38;3.85;;;;;;;-2.67;83.79;99760.72;5074923;28;20035;-76
2021/04/15 01:15:36;;;;;;;7.90;4.18;;;;;;;-2.88;83.32;99755.81;5059805;28;20466;-75
2021/04/15 01:18:06;;;;;;;8.10;4.50;;;;;;;-2.88;83.75;99758.47;5073539;28;20391;-76
2021/04/15 01:20:38;;;;;;;11.13;4.47;;;;;;;-2.83;84.38;99762.59;5065297;28;20021;-73
2021/04/15 01:23:03;;;;;;;6.18;4.20;;;;;;;-2.71;84.66;99760.06;5070908;28;20029;-73
2021/04/15 01:25:46;;;;;;;6.40;3.53;;;;;;;-2.75;83.98;99760.34;5055408;28;20116;-73
2021/04/15 01:28:12;;;;;;;7.18;4.13;;;;;;;-2.76;84.22;99761.28;5055130;28;20025;-73
2021/04/15 01:30:45;;;;;;;6.82;3.60;;;;;;;-2.85;83.51;99756.59;5068647;28;20085;-72
2021/04/15 01:33:33;;;;;;;5.80;3.80;;;;;;;-2.94;83.49;99757.97;5074227;28;20033;-73
2021/04/15 01:36:23;;;;;;;7.87;3.47;;;;;;;-2.84;83.60;99761.75;5074787;28;20021;-73
2021/04/15 01:39:18;;;;;;;7.60;4.28;;;;;;;-2.92;83.73;99759.59;5071618;28;20301;-73
2021/04/15 01:41:58;;;;;;;6.90;3.38;;;;;;;-2.91;83.15;99761.31;5073411;28;20029;-73
2021/04/15 01:44:36;;;;;;;8.73;3.88;;;;;;;-2.83;84.26;99759.97;5073299;28;20031;-72
2021/04/15 01:47:08;;;;;;;10.40;4.18;;;;;;;-2.73;84.07;99756.66;5072994;28;20490;-72
2021/04/15 01:49:39;;;;;;;6.95;3.97;;;;;;;-2.81;83.74;99745.69;5079316;28;20477;-72
2021/04/15 01:52:08;;;;;;;7.80;4.13;;;;;;;-2.88;83.78;99742.59;5094261;28;20120;-72
2021/04/15 01:54:43;;;;;;;9.18;3.95;;;;;;;-2.66;83.57;99759.78;5093001;28;20035;-73
2021/04/15 01:57:22;;;;;;;6.20;2.97;;;;;;;-2.78;82.84;99753.44;5076547;28;20031;-72
2021/04/15 01:59:56;;;;;;;5.03;3.15;;;;;;;-2.80;83.41;99747.41;5072305;28;20371;-72
2021/04/15 02:02:26;;;;;;;6.50;3.22;;;;;;;-2.80;83.45;99757.13;5082475;28;20024;-72
2021/04/15 02:05:06;;;;;;;7.70;2.95;;;;;;;-2.78;83.67;99757.88;5080772;28;20021;-72
2021/04/15 02:07:36;;;;;;;13.73;3.15;;;;;;;-2.90;84.19;99755.06;5073699;28;20028;-76
2021/04/15 02:10:10;;;;;;;6.72;3.75;;;;;;;-2.91;84.72;99756.00;5072163;28;20437;-75
2021/04/15 02:12:39;;;;;;;5.75;4.05;;;;;;;-2.95;84.09;99759.78;5080719;28;20024;-76
2021/04/15 02:15:33;;;;;;;10.52;4.85;;;;;;;-3.06;84.36;99756.94;5127857;22;20044;-70
2021/04/15 02:18:06;;;;;;;7.60;4.00;;;;;;;-3.21;83.26;99752.59;5063904;28;20482;-70
2021/04/15 02:20:32;;;;;;;7.45;4.35;;;;;;;-3.20;82.96;99765.72;5068402;28;20035;-70
2021/04/15 02:23:01;;;;;;;9.23;4.45;;;;;;;-3.26;83.32;99757.31;5071533;28;20028;-69
2021/04/15 02:25:31;;;;;;;6.03;3.55;;;;;;;-3.27;83.32;99766.19;5071488;28;20020;-70
2021/04/15 02:27:59;;;;;;;7.57;4.20;;;;;;;-3.38;84.17;99770.31;5062254;28;20064;-71
2021/04/15 02:30:33;;;;;;;7.78;4.30;;;;;;;-3.43;84.43;99768.88;5062764;28;20040;-70
2021/04/15 02:33:12;;;;;;;7.80;3.90;;;;;;;-3.45;85.08;99770.78;5052845;28;20033;-70
2021/04/15 02:35:42;;;;;;;7.00;4.30;;;;;;;-3.60;85.14;99772.53;5052833;28;20044;-70
2021/04/15 02:38:08;;;;;;;9.18;4.50;;;;;;;-3.68;85.55;99770.31;5073044;28;20062;-70
2021/04/15 02:40:57;;;;;;;9.02;4.50;;;;;;;-3.69;86.13;99770.41;5067937;28;20470;-69
2021/04/15 02:43:35;;;;;;;12.48;5.15;;;;;;;-3.68;86.47;99770.31;5054711;28;20469;-70
2021/04/15 02:46:08;;;;;;;10.25;5.45;;;;;;;-3.68;86.65;99765.03;5036040;28;20135;-70
2021/04/15 02:48:37;;;;;;;13.27;5.65;;;;;;;-3.42;86.50;99786.47;5052398;28;20036;-70
2021/04/15 02:51:06;;;;;;;10.20;5.57;;;;;;;-3.49;86.35;99775.38;5064381;28;20036;-69
2021/04/15 02:53:39;;;;;;;8.23;4.97;;;;;;;-3.32;85.99;99769.09;5055983;28;20029;-69
2021/04/15 02:56:19;;;;;;;10.73;4.72;;;;;;;-3.09;85.75;99778.31;5072164;28;20035;-72
2021/04/15 02:58:49;;;;;;;8.43;4.00;;;;;;;-3.08;84.82;99772.91;5050443;28;20118;-68
2021/04/15 03:01:18;;;;;;;6.38;3.85;;;;;;;-3.22;84.04;99772.03;5054758;28;20378;-71
2021/04/15 03:03:48;;;;;;;;;;;;;;;-3.22;84.40;99777.31;5053598;28;20105;-71
2021/04/15 03:06:18;;;;;;;6.20;3.70;;;;;;;-3.48;84.48;99765.66;5031551;28;19917;-70
2021/04/15 03:08:45;;;;;;;9.27;4.10;;;;;;;-3.39;85.00;99773.91;5045982;28;20028;-70
2021/04/15 03:11:20;;;;;;;6.97;3.97;;;;;;;-3.48;84.97;99761.22;5052581;28;20052;-70
2021/04/15 03:14:01;;;;;;;9.13;4.47;;;;;;;-3.48;85.22;99766.53;5053021;28;20021;-70
2021/04/15 03:16:38;;;;;;;7.03;3.63;;;;;;;-3.45;85.08;99766.34;5050036;28;20374;-70
2021/04/15 03:19:12;;;;;;;6.60;3.65;;;;;;;-3.58;85.16;99757.44;5051062;28;20029;-72
2021/04/15 03:22:23;;;;;;;5.60;3.47;;;;;;;-3.58;85.21;99768.00;5045574;28;20104;-72
2021/04/15 03:24:53;;;;;;;10.57;3.50;;;;;;;-3.61;85.33;99776.13;5027033;28;20060;-77
2021/04/15 03:27:40;;;;;;;8.73;4.10;;;;;;;-3.58;85.16;99765.34;5051542;28;20025;-73
2021/04/15 03:30:14;;;;;;;9.45;4.32;;;;;;;-3.57;85.40;99774.97;5047417;28;20052;-72
2021/04/15 03:32:48;;;;;;;7.20;3.58;;;;;;;-3.56;85.20;99769.63;5038750;28;20040;-74
2021/04/15 03:35:28;;;;;;;8.20;3.83;;;;;;;-3.58;85.42;99773.28;5040711;28;20025;-75
2021/04/15 03:38:12;;;;;;;6.72;3.58;;;;;;;-3.70;85.86;99766.91;5043890;28;20517;-72
2021/04/15 03:40:42;;;;;;;6.25;3.65;;;;;;;-3.66;86.04;99779.03;5036473;28;20025;-73
2021/04/15 03:43:20;;;;;;;9.48;3.92;;;;;;;-3.59;85.89;99767.16;5050361;28;20056;-73
2021/04/15 03:45:51;;;;;;;8.15;4.18;;;;;;;-3.66;86.08;99781.69;5045713;28;20022;-72
2021/04/15 03:48:21;;;;;;;8.13;3.70;;;;;;;-3.67;85.97;99781.75;5038636;28;20025;-71
2021/04/15 03:50:53;;;;;;;7.65;4.00;;;;;;;-3.71;85.90;99783.72;5051972;28;20051;-76
2021/04/15 03:53:34;;;;;;;9.73;3.28;;;;;;;-3.96;84.95;99776.34;5045361;28;20743;-75
2021/04/15 03:56:05;;;;;;;8.40;3.53;;;;;;;-3.84;84.92;99774.81;5040321;28;20040;-75
2021/04/15 03:58:39;;;;;;;6.97;3.80;;;;;;;-3.98;85.00;99771.16;5037900;28;20028;-71
2021/04/15 04:01:14;;;;;;;8.65;4.15;;;;;;;-4.10;85.39;99768.38;5038376;28;20021;-75
2021/04/15 04:03:42;;;;;;;9.02;4.45;;;;;;;-3.96;85.83;99781.63;5040430;28;20040;-75
2021/04/15 04:06:20;;;;;;;8.50;4.00;;;;;;;-4.03;86.41;99777.66;5038347;28;20057;-74
2021/04/15 04:08:47;;;;;;;8.55;4.32;;;;;;;-4.02;86.08;99790.75;5038047;28;22945;-74
2021/04/15 04:11:17;;;;;;;7.38;4.07;;;;;;;-3.72;86.28;99783.81;5038292;28;20112;-72
2021/04/15 04:13:48;;;;;;;6.72;3.60;;;;;;;-3.61;85.58;99782.25;5056115;28;20029;-73
2021/04/15 04:16:19;;;;;;;8.00;4.07;;;;;;;-3.58;85.64;99779.44;5052722;28;20036;-72
2021/04/15 04:19:00;;;;;;;8.82;3.95;;;;;;;-3.69;85.08;99784.50;5048356;28;20040;-73
2021/04/15 04:21:30;;;;;;;7.32;3.10;;;;;;;-3.68;84.93;99777.41;5049979;28;20486;-73
2021/04/15 04:24:11;;;;;;;8.23;3.67;;;;;;;-3.75;84.54;99790.13;5045664;28;20021;-74
2021/04/15 04:26:42;;;;;;;6.03;3.60;;;;;;;-3.96;85.17;99771.06;5041653;28;20051;-75
2021/04/15 04:29:37;;;;;;;8.30;3.03;;;;;;;-4.00;85.37;99785.41;5048363;28;20033;-71
2021/04/15 04:32:06;;;;;;;5.10;2.78;;;;;;;-3.91;86.07;99792.78;5020671;28;20041;-67
2021/04/15 04:34:33;;;;;;;5.53;2.85;;;;;;;-3.94;86.17;99784.19;5038827;28;20033;-73
2021/04/15 04:37:00;;;;;;;5.45;2.55;;;;;;;-3.92;86.23;99777.03;5051545;28;20024;-74
2021/04/15 04:39:28;;;;;;;5.18;2.78;;;;;;;-3.75;86.55;99791.00;5053604;28;20028;-71
2021/04/15 04:42:22;;;;;;;6.73;2.90;;;;;;;-3.66;86.43;99794.06;5054040;28;20071;-72
2021/04/15 04:44:57;;;;;;;9.18;2.38;;;;;;;-3.70;86.01;99798.66;5057061;28;20017;-72
2021/04/15 04:47:43;;;;;;;4.55;2.42;;;;;;;-3.65;86.09;99796.59;5042888;28;20029;-72
2021/04/15 04:50:23;;;;;;;3.35;2.13;;;;;;;-3.59;85.54;99792.72;5041495;28;20025;-73
2021/04/15 04:52:55;;;;;;;3.95;2.17;;;;;;;-3.57;85.84;99791.69;5051255;28;20141;-73
2021/04/15 04:55:24;;;;;;;7.15;2.63;;;;;;;-3.45;85.31;99787.50;5048375;28;20070;-71
2021/04/15 04:57:49;;;;;;;4.13;2.70;;;;;;;-3.35;85.04;99772.78;5055238;28;20028;-72
2021/04/15 05:00:19;;;;;;;8.43;2.88;;;;;;;-3.08;84.31;99801.19;5054855;28;20040;-73
2021/04/15 05:02:49;;;;;;;;;;;;;;;-2.96;84.22;99803.09;5036087;28;20030;-75
2021/04/15 05:05:20;;;;;;;8.07;3.47;;;;;;;-2.90;83.42;99799.22;5040826;28;19928;-75
2021/04/15 05:07:48;;;;;;;10.85;3.97;;;;;;;-2.84;83.06;99793.53;5050970;28;20037;-73
2021/04/15 05:10:20;;;;;;;6.80;4.25;;;;;;;-2.77;82.49;99789.59;5038943;28;20025;-73
2021/04/15 05:12:49;;;;;;;6.90;3.60;;;;;;;-2.66;81.74;99805.66;5040446;28;20028;-73
2021/04/15 05:15:15;;;;;;;5.40;3.42;;;;;;;-2.65;82.07;99788.84;5044898;28;20030;-73
2021/04/15 05:17:43;;;;;;;6.00;3.50;;;;;;;-2.39;81.44;99802.22;5049058;28;20032;-72
2021/04/15 05:20:20;;;;;;;5.47;3.38;;;;;;;-2.31;81.00;99801.75;5050893;28;20025;-74
2021/04/15 05:22:55;;;;;;;5.18;2.97;;;;;;;-2.11;80.22;99811.09;5057654;28;20100;-72
2021/04/15 05:25:47;;;;;;;6.28;3.20;;;;;;;-1.81;80.07;99805.59;5059787;28;20029;-71
2021/04/15 05:28:15;;;;;;;4.15;2.95;;;;;;;-1.57;78.96;99804.00;5019392;28;20033;-72
2021/04/15 05:30:47;;;;;;;4.97;2.60;;;;;;;-1.40;78.16;99810.81;5035499;28;20076;-73
2021/04/15 05:33:22;;;;;;;10.55;3.95;;;;;;;-1.17;76.97;99821.72;5054626;28;20151;-69
2021/04/15 05:35:58;;;;;;;9.13;4.30;;;;;;;-1.03;76.78;99810.97;5047167;28;20109;-74
2021/04/15 05:38:24;;;;;;;7.95;3.92;;;;;;;-0.88;75.73;99801.97;5050538;28;20061;-70
2021/04/15 05:40:52;;;;;;;7.75;3.63;;;;;;;-0.69;75.56;99801.53;5053972;28;20083;-73
2021/04/15 05:43:34;;;;;;;9.23;4.27;;;;;;;-0.45;73.97;99817.59;5054715;28;20033;-73
2021/04/15 05:46:05;;;;;;;12.75;4.88;;;;;;;-0.18;72.50;99797.97;5045362;28;20035;-73
2021/04/15 05:48:33;;;;;;;8.52;4.50;;;;;;;0.55;70.72;99793.50;5054454;28;20043;-72
2021/04/15 05:51:02;;;;;;;11.30;4.50;;;;;;;2.47;64.41;99794.38;5053796;28;20051;-73
2021/04/15 05:53:51;;;;;;;10.52;4.53;;;;;;;5.18;55.96;99801.63;5049601;28;20029;-70
2021/04/15 05:56:24;;;;;;;13.98;7.50;;;;;;;6.92;51.12;99788.28;5053881;28;20037;-69
2021/04/15 05:59:12;;;;;;;10.07;5.40;;;;;;;7.89;49.20;99784.50;5047028;28;20083;-76
2021/04/15 06:01:51;;;;;;;12.52;5.20;;;;;;;8.56;47.13;99779.16;5033822;28;20021;-74
2021/04/15 06:04:33;;;;;;;8.10;4.97;;;;;;;9.38;45.05;99784.56;5047366;28;20021;-73
2021/04/15 06:07:02;;;;;;;8.75;5.03;;;;;;;10.82;42.24;99775.25;5049680;28;20056;-69
2021/04/15 06:09:27;;;;;;;12.77;5.28;;;;;;;10.63;41.84;99776.59;5053804;28;20021;-77
2021/04/15 06:11:56;;;;;;;13.05;4.20;;;;;;;9.93;43.65;99785.56;5051425;28;20025;-71
2021/04/15 06:14:30;;;;;;;9.68;3.42;;;;;;;10.83;41.91;99775.09;5048838;28;20037;-71
2021/04/15 06:17:02;;;;;;;5.95;3.47;;;;;;;11.75;40.15;99780.31;5043601;28;20018;-70
2021/04/15 06:19:28;;;;;;;5.03;2.95;;;;;;;12.92;37.66;99777.53;5047697;28;20668;-73
2021/04/15 06:22:17;;;;;;;6.57;2.85;;;;;;;11.91;39.75;99789.31;5048206;28;20127;-71
2021/04/15 06:24:45;;;;;;;6.82;3.40;;;;;;;10.99;41.13;99778.69;5049369;28;20116;-72
2021/04/15 06:27:12;;;;;;;8.70;3.78;;;;;;;11.01;41.43;99785.63;5046816;28;20037;-75
2021/04/15 06:29:43;;;;;;;5.55;3.40;;;;;;;11.57;40.72;99786.09;5037829;28;20029;-68
2021/04/15 06:32:16;;;;;;;6.60;3.83;;;;;;;10.73;42.27;99802.41;5046654;28;20025;-73
2021/04/15 06:34:42;;;;;;;6.03;3.75;;;;;;;11.33;41.83;99786.34;5033825;28;20065;-72
2021/04/15 06:37:22;;;;;;;8.85;3.90;;;;;;;11.99;40.10;99791.91;5043958;28;20079;-72
2021/04/15 06:39:56;;;;;;;5.80;3.42;;;;;;;11.80;40.61;99804.16;5062707;28;20374;-72
2021/04/15 06:42:39;;;;;;;6.57;3.97;;;;;;;12.27;39.64;99797.50;5040944;28;22009;-71
2021/04/15 06:45:32;;;;;;;8.60;3.65;;;;;;;14.29;36.89;99792.50;5047231;28;20078;-69
2021/04/15 06:48:35;;;;;;;8.57;4.68;;;;;;;15.73;34.61;99793.97;5048685;28;20406;-70
2021/04/15 06:51:27;;;;;;;11.65;5.05;;;;;;;12.78;38.95;99802.88;5042562;28;20026;-71
2021/04/15 06:54:20;;;;;;;11.52;4.47;;;;;;;12.59;38.88;99795.38;5043552;28;20713;-73
2021/04/15 06:57:24;;;;;;;7.05;3.55;;;;;;;13.81;36.81;99793.31;5046260;28;20029;-70
2021/04/15 07:00:07;;;;;;;8.52;4.10;;;;;;;15.25;35.94;99788.75;5032249;28;20045;-71
2021/04/15 07:02:54;;;;;;;9.85;4.20;;;;;;;16.18;34.14;99785.88;5039656;28;20027;-68
2021/04/15 07:05:26;;;;;;;6.93;3.55;;;;;;;16.27;33.58;99781.84;5047558;28;20025;-68
2021/04/15 07:08:04;;;;;;;7.95;3.35;;;;;;;17.34;32.15;99787.50;5041415;28;20029;-68
2021/04/15 07:10:59;;;;;;;5.45;3.28;;;;;;;16.40;33.70;99787.25;5051967;28;20029;-68
2021/04/15 07:13:48;;;;;;;9.52;3.63;;;;;;;16.59;33.25;99788.22;5040647;28;20090;-70
2021/04/15 07:16:19;;;;;;;5.40;3.08;;;;;;;16.33;33.91;99799.28;5032952;28;20036;-70
2021/04/15 07:19:09;;;;;;;5.93;3.10;;;;;;;16.27;33.50;99781.84;5038710;28;20056;-75
2021/04/15 07:21:37;;;;;;;10.15;3.17;;;;;;;16.63;32.76;99791.34;5047299;28;20021;-74
2021/04/15 07:24:34;;;;;;;4.82;2.67;;;;;;;18.35;31.46;99777.22;5050166;28;20039;-73
2021/04/15 07:27:20;;;;;;;5.25;3.08;;;;;;;19.60;29.47;99779.13;5048650;28;20074;-72
2021/04/15 07:30:07;;;;;;;5.50;2.92;;;;;;;20.38;29.20;99784.41;5040045;28;20037;-72
2021/04/15 07:32:38;;;;;;;6.55;2.65;;;;;;;19.91;29.26;99783.44;5045666;28;20027;-76
2021/04/15 07:35:27;;;;;;;4.63;2.75;;;;;;;18.39;30.74;99790.22;5049054;28;20021;-76
2021/04/15 07:38:26;;;;;;;4.93;2.92;;;;;;;19.81;29.66;99782.38;5048455;28;20025;-73
2021/04/15 07:41:09;;;;;;;5.15;2.28;;;;;;;19.51;29.98;99785.19;5040286;28;20499;-72
2021/04/15 07:44:05;;;;;;;3.35;2.50;;;;;;;18.16;31.17;99784.63;5049393;28;20379;-73
2021/04/15 07:46:49;;;;;;;4.78;2.60;;;;;;;18.28;30.93;99793.72;5041840;28;20025;-75
2021/04/15 07:49:36;;;;;;;3.88;2.22;;;;;;;19.11;29.61;99789.44;5048151;28;20132;-76
2021/04/15 07:52:08;;;;;;;3.00;2.10;;;;;;;20.24;28.17;99784.69;5044800;28;20096;-74
2021/04/15 07:55:02;;;;;;;4.80;2.60;;;;;;;19.66;29.78;99789.19;5048613;28;20125;-77
2021/04/15 07:58:00;;;;;;;3.88;2.10;;;;;;;21.69;27.61;99783.50;5050546;28;20114;-73
2021/04/15 08:01:01;;;;;;;8.00;2.50;;;;;;;22.06;27.40;99770.81;5053220;28;20028;-76
2021/04/15 08:04:04;;;;;;;2.97;2.00;;;;;;;21.83;26.06;99787.56;5053170;28;20314;-75
2021/04/15 08:06:47;;;;;;;4.80;2.50;;;;;;;20.67;27.75;99788.03;5053004;28;20024;-74
2021/04/15 08:09:54;;;;;;;4.40;2.60;;;;;;;21.63;26.95;99786.16;5052783;28;20029;-75
2021/04/15 08:12:48;;;;;;;3.40;2.30;;;;;;;20.49;28.33;99794.56;5006833;28;20532;-77
2021/04/15 08:15:35;;;;;;;5.95;2.60;;;;;;;19.14;29.39;99788.97;5095287;23;20542;-76
2021/04/15 08:18:21;;;;;;;4.18;2.33;;;;;;;20.95;28.09;99788.03;5102172;28;20039;-73
2021/04/15 08:21:16;;;;;;;6.35;2.97;;;;;;;18.37;31.49;99791.53;5097732;28;20564;-71
2021/04/15 08:23:53;;;;;;;3.63;2.38;;;;;;;20.91;28.60;99788.78;5097098;28;20047;-73
2021/04/15 08:26:41;;;;;;;4.97;2.47;;;;;;;21.23;28.66;99784.41;5062586;28;20048;-74
2021/04/15 08:29:20;;;;;;;5.35;2.50;;;;;;;20.87;28.14;99787.59;5069406;28;20036;-72
2021/04/15 08:31:53;;;;;;;4.00;2.45;;;;;;;20.62;29.79;99791.53;5073138;28;20040;-74
2021/04/15 08:34:56;;;;;;;4.95;2.17;;;;;;;22.68;27.56;99786.19;5082575;28;20025;-73
2021/04/15 08:37:33;;;;;;;5.20;2.50;;;;;;;20.35;29.70;99764.56;5054914;28;20089;-72
2021/04/15 08:40:24;;;;;;;3.72;2.35;;;;;;;16.92;33.43;99778.16;5069079;28;20047;-74
2021/04/15 08:43:02;;;;;;;3.90;2.70;;;;;;;20.62;29.35;99787.94;5063939;28;20040;-72
2021/04/15 08:45:53;;;;;;;4.93;2.58;;;;;;;18.12;31.22;99788.88;5062803;28;20082;-68
2021/04/15 08:49:00;;;;;;;3.88;2.53;;;;;;;14.18;38.47;99798.53;5071013;28;20043;-68
2021/04/15 08:51:50;;;;;;;3.30;2.33;;;;;;;12.38;40.53;99799.72;5070503;28;20471;-70
2021/04/15 08:54:40;;;;;;;5.65;2.60;;;;;;;10.87;42.58;99792.66;5063651;28;20033;-70
2021/04/15 08:57:33;;;;;;;7.47;2.60;;;;;;;9.29;45.15;99791.81;5056818;28;20033;-71
2021/04/15 09:00:13;;;;;;;5.13;2.65;;;;;;;9.05;47.15;99808.03;5054610;28;20040;-69
2021/04/15 09:02:59;;;;;;;4.72;2.30;;;;;;;9.14;47.26;99807.00;5062063;28;20032;-69
2021/04/15 09:05:43;;;;;;;4.70;2.33;;;;;;;10.56;44.19;99784.59;5062094;28;20097;-74
2021/04/15 09:08:27;;;;;;;6.70;2.00;;;;;;;15.95;35.80;99772.72;5063209;28;20033;-72
2021/04/15 09:11:07;;;;;;;5.03;2.20;;;;;;;19.97;31.26;99772.56;5069291;28;20071;-75
2021/04/15 09:13:51;;;;;;;4.07;2.10;;;;;;;22.37;27.99;99771.22;5068141;28;20028;-70
2021/04/15 09:16:23;;;;;;;3.53;1.65;;;;;;;22.60;25.40;99761.00;5061857;28;20024;-70
2021/04/15 09:19:12;;;;;;;5.60;1.90;;;;;;;23.60;25.45;99764.97;5067492;28;20016;-73
2021/04/15 09:22:22;;;;;;;3.05;1.83;;;;;;;23.13;25.89;99754.69;5059271;28;20055;-69
2021/04/15 09:25:02;;;;;;;3.17;1.73;;;;;;;18.50;30.57;99771.34;5066770;28;20024;-70
2021/04/15 09:27:40;;;;;;;4.13;1.73;;;;;;;15.31;34.86;99782.44;5058020;28;20072;-68
2021/04/15 09:30:35;;;;;;;2.88;1.60;;;;;;;13.37;37.15;99785.47;5065445;28;20035;-69
2021/04/15 09:33:15;;;;;;;4.70;1.58;;;;;;;12.25;36.99;99777.84;5055873;28;20437;-70
2021/04/15 09:36:20;;;;;;;3.42;1.88;;;;;;;14.82;34.82;99779.03;5060883;28;20039;-72
2021/04/15 09:39:04;;;;;;;3.67;1.88;;;;;;;14.99;34.86;99774.06;5086754;28;20025;-74
2021/04/15 09:41:38;;;;;;;3.08;1.60;;;;;;;15.66;33.40;99776.75;5059116;28;20090;-69
2021/04/15 09:44:19;;;;;;;4.32;1.75;;;;;;;15.76;32.14;99758.06;5059864;28;20055;-74
2021/04/15 09:47:11;;;;;;;2.97;1.60;;;;;;;14.65;33.31;99765.00;5055909;28;20032;-70
2021/04/15 09:50:04;;;;;;;4.22;2.00;;;;;;;13.04;34.63;99760.69;5057837;28;20129;-69
2021/04/15 09:52:58;;;;;;;5.90;1.73;;;;;;;12.12;37.18;99767.69;5071361;28;20485;-72
2021/04/15 09:55:56;;;;;;;5.90;2.05;;;;;;;11.50;40.14;99774.31;5050843;28;20040;-74
2021/04/15 09:58:32;;;;;;;4.15;2.53;;;;;;;10.39;42.27;99783.00;5058309;28;20049;-73
2021/04/15 10:01:02;;;;;;;3.38;2.22;;;;;;;9.96;43.41;99780.66;5058491;28;20020;-69
2021/04/15 10:03:45;;;;;;;5.90;2.65;;;;;;;9.70;43.58;99777.38;5069940;28;20025;-73
2021/04/15 10:06:25;;;;;;;4.60;2.30;;;;;;;9.83;43.53;99783.91;5053485;28;20029;-66
2021/04/15 10:08:57;;;;;;;5.38;2.25;;;;;;;9.84;41.99;99772.06;5083724;28;20048;-73
2021/04/15 10:11:26;;;;;;;5.80;1.70;;;;;;;10.83;40.96;99755.31;5069570;28;20377;-70
2021/04/15 10:14:08;;;;;;;7.40;2.20;;;;;;;12.84;38.29;99771.41;5071124;28;20033;-71
2021/04/15 10:16:46;;;;;;;5.63;2.42;;;;;;;14.37;35.47;99750.63;5062486;28;20020;-73
2021/04/15 10:19:33;;;;;;;4.65;2.30;;;;;;;13.95;36.53;99756.13;5072651;28;20024;-74
2021/04/15 10:22:23;;;;;;;3.38;2.03;;;;;;;12.79;39.60;99765.72;5075484;28;20148;-72
2021/04/15 10:24:52;;;;;;;2.40;1.88;;;;;;;11.81;40.18;99759.72;5083048;28;20021;-71
2021/04/15 10:27:55;;;;;;;4.78;2.35;;;;;;;9.87;43.57;99777.13;5061390;28;20077;-71
2021/04/15 10:30:48;;;;;;;6.57;2.33;;;;;;;9.40;44.78;99783.34;5069642;28;20044;-71
2021/04/15 10:33:51;;;;;;;2.97;2.30;;;;;;;9.10;45.83;99786.78;5075953;28;20085;-71
2021/04/15 10:36:41;;;;;;;4.20;2.25;;;;;;;8.88;46.39;99783.75;5064085;28;20040;-71
2021/04/15 10:39:40;;;;;;;2.60;2.08;;;;;;;8.28;46.48;99782.09;5067859;28;20052;-71
2021/04/15 10:42:36;;;;;;;6.25;2.05;;;;;;;7.98;47.73;99780.81;5060367;28;20096;-71
2021/04/15 10:45:39;;;;;;;4.57;2.25;;;;;;;7.77;48.93;99785.78;5066444;28;20553;-70
2021/04/15 10:48:22;;;;;;;2.47;1.92;;;;;;;7.61;45.91;99773.91;5066948;28;20478;-72
2021/04/15 10:50:54;;;;;;;4.88;1.88;;;;;;;7.66;46.14;99787.75;5061274;28;20028;-71
2021/04/15 10:53:20;;;;;;;4.43;1.65;;;;;;;7.83;44.69;99777.03;5064934;28;20060;-71
2021/04/15 10:56:04;;;;;;;4.30;1.58;;;;;;;8.29;43.52;99769.47;5064807;28;20474;-71
2021/04/15 10:58:43;;;;;;;3.03;1.95;;;;;;;9.06;43.06;99771.91;5064442;28;20697;-71
2021/04/15 11:01:19;;;;;;;2.65;1.70;;;;;;;8.85;43.15;99767.03;5073072;28;20050;-73
2021/04/15 11:03:45;;;;;;;4.18;2.22;;;;;;;8.76;44.47;99761.63;5066602;28;20087;-74
2021/04/15 11:06:31;;;;;;;3.50;1.98;;;;;;;8.62;44.15;99739.88;5059640;28;20525;-74
2021/04/15 11:09:14;;;;;;;2.30;1.80;;;;;;;9.17;45.57;99747.28;5062388;28;20032;-73
2021/04/15 11:11:58;;;;;;;6.05;2.30;;;;;;;9.82;44.39;99733.59;5072079;28;20033;-76
2021/04/15 11:14:30;;;;;;;2.80;2.00;;;;;;;12.19;40.08;99746.06;5069477;28;20032;-73
2021/04/15 11:16:57;;;;;;;5.57;1.90;;;;;;;15.67;34.69;99729.34;5060993;28;20016;-75
2021/04/15 11:19:26;;;;;;;3.85;2.03;;;;;;;17.28;32.65;99717.28;5071893;28;20021;-73
2021/04/15 11:21:53;;;;;;;;;;;;;;;17.09;31.66;99721.88;5072522;28;20561;-75
2021/04/15 11:24:29;;;;;;;4.13;2.00;;;;;;;19.45;28.85;99721.97;5068627;28;19938;-73
2021/04/15 11:26:58;;;;;;;3.17;1.90;;;;;;;19.58;29.35;99717.31;5070874;28;20648;-76
2021/04/15 11:29:44;;;;;;;;;;;;;;;18.71;30.06;99716.00;5069653;28;20032;-76
2021/04/15 11:32:48;;;;;;;3.10;1.70;;;;;;;19.37;29.33;99705.03;5066825;28;19913;-74
2021/04/15 11:35:19;;;;;;;4.22;2.05;;;;;;;18.22;30.42;99707.00;5058358;28;20473;-67
2021/04/15 11:37:47;;;;;;;3.65;1.90;;;;;;;17.55;31.70;99703.34;5059329;28;20805;-67
2021/04/15 11:40:14;;;;;;;4.30;1.80;;;;;;;18.34;31.10;99698.84;5059537;28;20032;-67
2021/04/15 11:42:39;;;;;;;6.32;1.90;;;;;;;17.82;31.26;99691.06;5059824;28;20060;-67
2021/04/15 11:45:06;;;;;;;4.97;2.25;;;;;;;18.05;29.89;99690.38;5061321;28;20067;-75
2021/04/15 11:47:34;;;;;;;3.85;1.88;;;;;;;18.06;30.33;99686.56;5061174;28;20025;-68
2021/04/15 11:50:13;;;;;;;2.67;1.75;;;;;;;17.86;30.00;99691.44;5060569;28;20033;-68
2021/04/15 11:52:45;;;;;;;3.67;1.67;;;;;;;18.90;28.76;99675.66;5060295;28;20059;-68
2021/04/15 11:55:35;;;;;;;3.60;1.65;;;;;;;20.05;27.38;99681.53;5066337;28;20033;-70
2021/04/15 11:58:00;;;;;;;2.13;1.70;;;;;;;19.87;27.20;99679.81;5062639;28;20078;-67
2021/04/15 12:00:34;;;;;;;2.38;1.67;;;;;;;19.14;27.27;99678.41;5066633;28;20025;-69
2021/04/15 12:02:59;;;;;;;2.35;1.80;;;;;;;18.56;27.18;99680.78;5072628;28;20032;-68
2021/04/15 12:05:40;;;;;;;3.83;1.52;;;;;;;16.86;30.92;99687.78;5072166;28;20028;-68
2021/04/15 12:08:22;;;;;;;5.32;2.00;;;;;;;15.15;33.89;99703.81;5074652;28;20025;-69
2021/04/15 12:10:50;;;;;;;2.40;1.98;;;;;;;14.31;34.90;99699.75;5074030;28;20036;-68
2021/04/15 12:13:21;;;;;;;1.85;1.50;;;;;;;12.58;34.04;99698.69;5073017;28;20092;-68
2021/04/15 12:16:00;;;;;;;1.33;1.20;;;;;;;11.58;36.04;99702.91;5077072;28;20052;-68
2021/04/15 12:18:43;;;;;;;2.75;1.30;;;;;;;10.24;38.62;99709.84;5076913;28;20036;-68
2021/04/15 12:21:21;;;;;;;4.10;1.70;;;;;;;10.37;39.22;99715.53;5070772;28;20032;-68
2021/04/15 12:23:54;;;;;;;2.65;1.85;;;;;;;10.10;39.79;99697.94;5075231;28;20055;-68